createdAt,value
2023-04-18T00:00:53.417Z,75.46
2023-04-18T00:01:55.769Z,75.01
2023-04-18T00:02:59.256Z,74.95
2023-04-18T00:04:03.201Z,75.95
2023-04-18T00:05:07.626Z,76.03
2023-04-18T00:06:10.387Z,76.57
2023-04-18T00:07:15.269Z,76.67
2023-04-18T00:08:17.254Z,76.61
2023-04-18T00:09:19.157Z,76.81
2023-04-18T00:10:21.279Z,77.16
2023-04-18T00:11:23.185Z,76.28
2023-04-18T00:12:25.356Z,76.36
2023-04-18T00:13:28.541Z,75.74
2023-04-18T00:14:30.613Z,75.82
2023-04-18T00:15:34.518Z,76.33
2023-04-18T00:16:38.139Z,76.66
2023-04-18T00:17:41.005Z,76.33
2023-04-18T00:18:42.947Z,76.64
2023-04-18T00:19:44.801Z,76.58
2023-04-18T00:20:46.980Z,76.37
2023-04-18T00:21:49.517Z,75.13
2023-04-18T00:22:53.292Z,75.18
2023-04-18T00:23:55.217Z,75.77
2023-04-18T00:24:57.066Z,75.42
2023-04-18T00:25:59.017Z,74.45
2023-04-18T00:27:01.909Z,75.28
2023-04-18T00:28:04.128Z,75.52
2023-04-18T00:29:06.031Z,75.58
2023-04-18T00:30:10.849Z,75.21
2023-04-18T00:31:12.773Z,75.65
2023-04-18T00:32:14.887Z,75.69
2023-04-18T00:33:17.231Z,75.00
2023-04-18T00:34:19.311Z,75.06
2023-04-18T00:35:21.320Z,75.27
2023-04-18T00:36:23.224Z,75.71
2023-04-18T00:37:25.217Z,76.02
2023-04-18T00:38:27.428Z,75.35
2023-04-18T00:39:29.340Z,75.38
2023-04-18T00:40:31.317Z,75.58
2023-04-18T00:41:33.263Z,75.96
2023-04-18T00:42:35.156Z,75.30
2023-04-18T00:43:37.475Z,75.21
2023-04-18T00:44:39.379Z,74.71
2023-04-18T00:45:41.344Z,74.88
2023-04-18T00:46:43.499Z,75.17
2023-04-18T00:47:45.396Z,75.30
2023-04-18T00:48:48.096Z,75.05
2023-04-18T00:49:50.058Z,74.40
2023-04-18T00:50:53.853Z,74.35
2023-04-18T00:51:57.087Z,74.66
2023-04-18T00:52:59.537Z,74.79
2023-04-18T00:54:04.006Z,74.74
2023-04-18T00:55:08.219Z,74.48
2023-04-18T00:56:10.167Z,74.98
2023-04-18T00:57:14.288Z,75.60
2023-04-18T00:58:16.449Z,75.76
2023-04-18T00:59:18.735Z,75.78
2023-04-18T01:00:20.924Z,75.06
2023-04-18T01:01:23.421Z,75.19
2023-04-18T01:02:27.315Z,75.50
2023-04-18T01:03:29.494Z,74.84
2023-04-18T01:04:34.996Z,74.52
2023-04-18T01:05:37.027Z,74.67
2023-04-18T01:06:39.485Z,75.20
2023-04-18T01:07:41.820Z,75.14
2023-04-18T01:08:45.002Z,75.20
2023-04-18T01:09:47.582Z,74.95
2023-04-18T01:10:49.899Z,74.95
2023-04-18T01:11:51.831Z,75.04
2023-04-18T01:13:13.171Z,75.19
2023-04-18T01:14:15.241Z,75.18
2023-04-18T01:15:17.556Z,75.28
2023-04-18T01:16:19.511Z,75.62
2023-04-18T01:17:24.422Z,75.53
2023-04-18T01:18:27.330Z,76.15
2023-04-18T01:19:29.185Z,76.23
2023-04-18T01:20:31.486Z,75.87
2023-04-18T01:21:36.126Z,76.29
2023-04-18T01:22:37.934Z,76.79
2023-04-18T01:23:43.651Z,76.40
2023-04-18T01:24:49.876Z,76.32
2023-04-18T01:25:52.208Z,75.61
2023-04-18T01:26:54.040Z,75.13
2023-04-18T01:27:58.788Z,75.19
2023-04-18T01:29:02.122Z,74.99
2023-04-18T01:30:05.441Z,74.76
2023-04-18T01:31:07.785Z,74.21
2023-04-18T01:32:11.510Z,74.54
2023-04-18T01:33:13.394Z,74.60
2023-04-18T01:34:15.564Z,74.41
2023-04-18T01:35:18.149Z,74.61
2023-04-18T01:36:20.365Z,74.17
2023-04-18T01:37:22.381Z,74.54
2023-04-18T01:38:24.274Z,74.80
2023-04-18T01:39:26.308Z,74.63
2023-04-18T01:40:28.275Z,74.39
2023-04-18T01:41:32.747Z,74.88
2023-04-18T01:42:35.089Z,74.86
2023-04-18T01:43:37.463Z,74.41
2023-04-18T01:44:39.413Z,73.91
2023-04-18T01:45:41.352Z,73.91
2023-04-18T01:46:44.379Z,73.47
2023-04-18T01:47:47.272Z,73.02
2023-04-18T01:48:49.235Z,72.98
2023-04-18T01:49:51.201Z,73.45
2023-04-18T01:50:53.142Z,73.37
2023-04-18T01:51:55.375Z,73.84
2023-04-18T01:52:57.242Z,73.62
2023-04-18T01:53:59.089Z,73.58
2023-04-18T01:55:02.193Z,73.18
2023-04-18T01:56:04.133Z,73.28
2023-04-18T01:57:06.409Z,73.84
2023-04-18T01:58:08.310Z,73.53
2023-04-18T01:59:11.011Z,73.54
2023-04-18T02:00:13.970Z,73.24
2023-04-18T02:01:16.345Z,73.45
2023-04-18T02:02:18.720Z,73.58
2023-04-18T02:03:21.136Z,73.67
2023-04-18T02:04:23.074Z,73.92
2023-04-18T02:05:27.090Z,73.74
2023-04-18T02:06:28.962Z,74.06
2023-04-18T02:07:31.197Z,74.13
2023-04-18T02:08:35.811Z,74.54
2023-04-18T02:09:39.618Z,74.32
2023-04-18T02:10:41.716Z,73.44
2023-04-18T02:11:44.229Z,73.62
2023-04-18T02:12:46.396Z,74.22
2023-04-18T02:13:48.683Z,74.56
2023-04-18T02:14:53.452Z,74.50
2023-04-18T02:15:55.395Z,74.43
2023-04-18T02:16:58.174Z,74.93
2023-04-18T02:18:00.470Z,75.05
2023-04-18T02:19:04.370Z,75.21
2023-04-18T02:20:08.175Z,75.04
2023-04-18T02:21:11.265Z,75.24
2023-04-18T02:22:13.147Z,75.70
2023-04-18T02:23:14.977Z,75.86
2023-04-18T02:24:17.129Z,75.94
2023-04-18T02:25:19.425Z,75.31
2023-04-18T02:26:23.038Z,75.33
2023-04-18T02:27:24.978Z,76.01
2023-04-18T02:28:31.195Z,75.69
2023-04-18T02:29:33.075Z,76.37
2023-04-18T02:30:35.293Z,76.01
2023-04-18T02:31:39.855Z,76.20
2023-04-18T02:32:41.771Z,76.18
2023-04-18T02:33:46.694Z,75.82
2023-04-18T02:34:48.571Z,75.29
2023-04-18T02:35:51.397Z,74.97
2023-04-18T02:36:53.550Z,75.59
2023-04-18T02:37:55.365Z,75.88
2023-04-18T02:38:57.221Z,76.00
2023-04-18T02:39:59.111Z,76.44
2023-04-18T02:41:04.792Z,76.11
2023-04-18T02:42:06.666Z,75.95
2023-04-18T02:43:08.515Z,76.39
2023-04-18T02:44:10.481Z,76.51
2023-04-18T02:45:12.695Z,76.22
2023-04-18T02:46:14.992Z,76.81
2023-04-18T02:47:17.805Z,76.99
2023-04-18T02:48:20.530Z,76.98
2023-04-18T02:49:22.801Z,76.78
2023-04-18T02:50:25.413Z,76.49
2023-04-18T02:51:28.166Z,76.52
2023-04-18T02:52:31.835Z,76.44
2023-04-18T02:53:34.646Z,76.52
2023-04-18T02:54:36.677Z,76.51
2023-04-18T02:55:38.966Z,76.72
2023-04-18T02:56:42.877Z,77.20
2023-04-18T02:57:45.906Z,76.60
2023-04-18T02:58:51.116Z,75.73
2023-04-18T02:59:55.533Z,75.85
2023-04-18T03:00:58.409Z,76.42
2023-04-18T03:02:02.061Z,76.92
2023-04-18T03:03:04.328Z,76.62
2023-04-18T03:04:07.381Z,76.84
2023-04-18T03:05:09.694Z,77.10
2023-04-18T03:06:12.046Z,77.18
2023-04-18T03:07:14.352Z,77.23
2023-04-18T03:08:16.445Z,77.19
2023-04-18T03:09:18.693Z,76.87
2023-04-18T03:10:21.699Z,77.50
2023-04-18T03:11:24.648Z,78.14
2023-04-18T03:12:27.753Z,77.33
2023-04-18T03:13:29.711Z,77.10
2023-04-18T03:14:31.592Z,77.21
2023-04-18T03:15:34.397Z,77.03
2023-04-18T03:16:36.484Z,76.67
2023-04-18T03:17:39.485Z,77.22
2023-04-18T03:18:41.747Z,76.89
2023-04-18T03:19:44.946Z,77.30
2023-04-18T03:20:47.658Z,77.31
2023-04-18T03:21:51.289Z,77.03
2023-04-18T03:22:53.422Z,77.63
2023-04-18T03:23:55.645Z,78.17
2023-04-18T03:24:57.714Z,78.66
2023-04-18T03:26:00.926Z,78.58
2023-04-18T03:27:03.844Z,78.38
2023-04-18T03:28:06.169Z,79.10
2023-04-18T03:29:08.501Z,79.17
2023-04-18T03:30:11.172Z,79.22
2023-04-18T03:31:13.558Z,78.62
2023-04-18T03:32:17.350Z,79.39
2023-04-18T03:33:20.104Z,79.51
2023-04-18T03:34:22.381Z,80.27
2023-04-18T03:35:24.767Z,80.28
2023-04-18T03:36:28.687Z,80.84
2023-04-18T03:37:30.910Z,81.21
2023-04-18T03:38:35.058Z,81.50
2023-04-18T03:39:37.923Z,81.93
2023-04-18T03:40:40.063Z,81.82
2023-04-18T03:41:42.591Z,82.26
2023-04-18T03:42:45.321Z,82.95
2023-04-18T03:43:47.510Z,82.93
2023-04-18T03:44:49.361Z,82.33
2023-04-18T03:45:51.447Z,82.85
2023-04-18T03:46:54.170Z,82.81
2023-04-18T03:47:56.454Z,83.11
2023-04-18T03:48:58.871Z,82.70
2023-04-18T03:50:01.281Z,82.68
2023-04-18T03:51:05.597Z,82.83
2023-04-18T03:52:07.560Z,82.46
2023-04-18T03:53:09.555Z,82.32
2023-04-18T03:54:12.180Z,82.48
2023-04-18T03:55:14.345Z,82.41
2023-04-18T03:56:16.225Z,82.83
2023-04-18T03:57:19.909Z,83.18
2023-04-18T03:58:23.755Z,83.43
2023-04-18T03:59:26.477Z,83.67
2023-04-18T04:00:29.439Z,83.96
2023-04-18T04:01:32.103Z,83.27
2023-04-18T04:02:34.143Z,83.14
2023-04-18T04:03:36.304Z,83.18
2023-04-18T04:04:39.605Z,83.81
2023-04-18T04:05:41.739Z,84.35
2023-04-18T04:06:44.065Z,84.21
2023-04-18T04:07:47.133Z,85.05
2023-04-18T04:08:49.189Z,85.52
2023-04-18T04:09:52.611Z,86.85
2023-04-18T04:10:54.568Z,86.13
2023-04-18T04:11:58.057Z,86.12
2023-04-18T04:13:02.079Z,86.08
2023-04-18T04:14:04.826Z,86.39
2023-04-18T04:15:07.577Z,86.26
2023-04-18T04:16:10.035Z,85.99
2023-04-18T04:17:12.671Z,86.11
2023-04-18T04:18:14.741Z,86.44
2023-04-18T04:19:16.844Z,86.13
2023-04-18T04:20:24.168Z,86.36
2023-04-18T04:21:27.180Z,87.02
2023-04-18T04:22:29.433Z,87.23
2023-04-18T04:23:31.427Z,86.68
2023-04-18T04:24:33.745Z,87.03
2023-04-18T04:25:36.576Z,87.37
2023-04-18T04:26:39.045Z,86.55
2023-04-18T04:27:42.797Z,85.98
2023-04-18T04:28:47.424Z,87.21
2023-04-18T04:29:52.304Z,87.49
2023-04-18T04:30:55.507Z,87.82
2023-04-18T04:31:59.146Z,88.18
2023-04-18T04:33:04.226Z,87.04
2023-04-18T04:34:06.283Z,86.92
2023-04-18T04:35:08.666Z,87.27
2023-04-18T04:36:10.806Z,87.20
2023-04-18T04:37:18.687Z,87.97
2023-04-18T04:38:25.021Z,87.61
2023-04-18T04:39:27.974Z,87.57
2023-04-18T04:40:32.238Z,88.34
2023-04-18T04:41:37.563Z,88.41
2023-04-18T04:42:41.103Z,88.29
2023-04-18T04:43:44.269Z,92.55
2023-04-18T04:44:47.277Z,87.92
2023-04-18T04:45:53.943Z,87.55
2023-04-18T04:46:57.263Z,86.61
2023-04-18T04:48:00.049Z,86.89
2023-04-18T04:49:02.413Z,86.59
2023-04-18T04:50:06.239Z,87.25
2023-04-18T04:51:08.132Z,87.50
2023-04-18T04:52:10.568Z,87.13
2023-04-18T04:53:12.468Z,87.10
2023-04-18T04:54:14.992Z,87.92
2023-04-18T04:55:18.974Z,88.54
2023-04-18T04:56:22.792Z,88.44
2023-04-18T04:57:24.864Z,88.45
2023-04-18T04:58:27.590Z,88.44
2023-04-18T04:59:30.505Z,88.55
2023-04-18T05:00:32.647Z,88.19
2023-04-18T05:01:35.529Z,87.98
2023-04-18T05:02:37.742Z,88.38
2023-04-18T05:03:40.039Z,88.47
2023-04-18T05:04:42.585Z,88.57
2023-04-18T05:05:44.762Z,88.59
2023-04-18T05:06:46.668Z,88.57
2023-04-18T05:07:48.528Z,88.44
2023-04-18T05:08:51.141Z,88.19
2023-04-18T05:09:53.636Z,87.85
2023-04-18T05:10:55.770Z,87.88
2023-04-18T05:11:57.641Z,87.38
2023-04-18T05:12:59.506Z,86.89
2023-04-18T05:14:01.341Z,87.28
2023-04-18T05:15:03.664Z,86.50
2023-04-18T05:16:06.158Z,86.20
2023-04-18T05:17:08.416Z,85.89
2023-04-18T05:18:10.505Z,85.09
2023-04-18T05:19:12.375Z,85.20
2023-04-18T05:20:14.675Z,85.67
2023-04-18T05:21:16.741Z,85.04
2023-04-18T05:22:18.663Z,84.18
2023-04-18T05:23:20.515Z,83.30
2023-04-18T05:24:22.407Z,83.73
2023-04-18T05:25:24.799Z,84.00
2023-04-18T05:26:26.722Z,84.44
2023-04-18T05:27:28.894Z,84.28
2023-04-18T05:28:30.883Z,88.20
2023-04-18T05:29:32.884Z,88.44
2023-04-18T05:30:35.152Z,80.71
2023-04-18T05:31:37.121Z,78.60
2023-04-18T05:32:39.252Z,79.68
2023-04-18T05:33:41.168Z,78.76
2023-04-18T05:34:43.534Z,80.16
2023-04-18T05:35:45.802Z,80.35
2023-04-18T05:36:47.982Z,80.80
2023-04-18T05:37:49.840Z,79.59
2023-04-18T05:38:51.728Z,79.71
2023-04-18T05:39:53.562Z,78.75
2023-04-18T05:40:56.064Z,78.04
2023-04-18T05:41:58.439Z,76.31
2023-04-18T05:43:00.964Z,76.08
2023-04-18T05:44:16.775Z,76.09
2023-04-18T05:45:18.919Z,75.26
2023-04-18T05:46:21.151Z,75.34
2023-04-18T05:47:26.710Z,74.69
2023-04-18T05:48:28.717Z,75.38
2023-04-18T05:49:30.702Z,74.83
2023-04-18T05:50:32.574Z,73.94
2023-04-18T05:51:35.066Z,73.42
2023-04-18T05:52:38.960Z,72.94
2023-04-18T05:53:40.826Z,72.49
2023-04-18T05:54:42.698Z,72.85
2023-04-18T05:55:46.533Z,72.98
2023-04-18T05:56:48.788Z,72.31
2023-04-18T05:57:50.819Z,72.22
2023-04-18T05:58:52.674Z,72.72
2023-04-18T05:59:54.533Z,72.38
2023-04-18T06:00:56.604Z,72.09
2023-04-18T06:01:58.829Z,73.20
2023-04-18T06:03:00.888Z,72.79
2023-04-18T06:04:03.033Z,72.21
2023-04-18T06:05:05.720Z,72.36
2023-04-18T06:06:08.019Z,71.27
2023-04-18T06:07:10.422Z,71.79
2023-04-18T06:08:12.287Z,71.97
2023-04-18T06:09:14.225Z,70.90
2023-04-18T06:10:16.258Z,70.43
2023-04-18T06:11:21.195Z,70.17
2023-04-18T06:12:23.601Z,70.92
2023-04-18T06:13:25.507Z,69.02
2023-04-18T06:14:28.383Z,69.40
2023-04-18T06:15:30.313Z,69.17
2023-04-18T06:16:32.273Z,69.39
2023-04-18T06:17:35.041Z,69.36
2023-04-18T06:18:37.002Z,69.53
2023-04-18T06:19:39.699Z,69.41
2023-04-18T06:20:43.916Z,69.19
2023-04-18T06:21:46.116Z,68.73
2023-04-18T06:22:48.271Z,69.45
2023-04-18T06:23:50.202Z,68.13
2023-04-18T06:24:52.049Z,67.63
2023-04-18T06:25:53.981Z,67.28
2023-04-18T06:27:00.220Z,67.20
2023-04-18T06:28:02.480Z,67.63
2023-04-18T06:29:04.326Z,65.87
2023-04-18T06:30:07.918Z,65.51
2023-04-18T06:31:09.778Z,65.38
2023-04-18T06:32:11.699Z,65.57
2023-04-18T06:33:13.968Z,65.88
2023-04-18T06:34:16.620Z,65.38
2023-04-18T06:35:18.739Z,66.35
2023-04-18T06:36:21.232Z,66.13
2023-04-18T06:37:23.526Z,65.62
2023-04-18T06:38:25.798Z,65.05
2023-04-18T06:39:28.022Z,64.83
2023-04-18T06:40:30.025Z,65.47
2023-04-18T06:41:31.990Z,64.23
2023-04-18T06:42:33.905Z,64.29
2023-04-18T06:43:36.234Z,65.04
2023-04-18T06:44:38.291Z,64.83
2023-04-18T06:45:40.517Z,64.84
2023-04-18T06:46:42.734Z,65.28
2023-04-18T06:47:44.800Z,65.52
2023-04-18T06:48:46.986Z,65.35
2023-04-18T06:49:48.874Z,65.00
2023-04-18T06:50:51.239Z,65.44
2023-04-18T06:51:53.118Z,64.71
2023-04-18T06:52:55.283Z,65.19
2023-04-18T06:53:57.448Z,65.93
2023-04-18T06:54:59.426Z,66.03
2023-04-18T06:56:01.296Z,65.28
2023-04-18T06:57:03.818Z,65.45
2023-04-18T06:58:05.844Z,65.62
2023-04-18T06:59:07.963Z,65.37
2023-04-18T07:00:10.559Z,65.82
2023-04-18T07:01:12.516Z,65.77
2023-04-18T07:02:14.823Z,65.33
2023-04-18T07:03:16.846Z,65.53
2023-04-18T07:04:19.543Z,65.12
2023-04-18T07:05:21.750Z,65.51
2023-04-18T07:06:23.597Z,64.66
2023-04-18T07:07:26.479Z,65.39
2023-04-18T07:08:28.430Z,64.64
2023-04-18T07:09:31.044Z,64.41
2023-04-18T07:10:33.052Z,63.65
2023-04-18T07:11:34.912Z,64.17
2023-04-18T07:12:36.891Z,63.80
2023-04-18T07:13:38.878Z,64.21
2023-04-18T07:14:41.039Z,64.95
2023-04-18T07:15:42.955Z,65.38
2023-04-18T07:16:44.898Z,64.96
2023-04-18T07:17:46.926Z,64.64
2023-04-18T07:18:48.809Z,63.42
2023-04-18T07:19:50.997Z,63.49
2023-04-18T07:20:52.862Z,63.74
2023-04-18T07:21:55.946Z,62.61
2023-04-18T07:22:57.840Z,62.60
2023-04-18T07:23:59.753Z,61.81
2023-04-18T07:25:02.014Z,62.86
2023-04-18T07:26:05.774Z,61.20
2023-04-18T07:27:09.478Z,60.94
2023-04-18T07:28:11.328Z,61.21
2023-04-18T07:29:13.182Z,61.15
2023-04-18T07:30:15.511Z,61.31
2023-04-18T07:31:19.495Z,60.90
2023-04-18T07:32:21.659Z,61.98
2023-04-18T07:33:24.114Z,60.84
2023-04-18T07:34:29.790Z,60.41
2023-04-18T07:35:32.121Z,60.02
2023-04-18T07:36:34.028Z,59.14
2023-04-18T07:37:36.168Z,59.61
2023-04-18T07:38:39.302Z,59.42
2023-04-18T07:39:41.837Z,58.99
2023-04-18T07:40:45.598Z,59.15
2023-04-18T07:41:47.468Z,58.68
2023-04-18T07:42:49.353Z,57.67
2023-04-18T07:43:51.209Z,57.36
2023-04-18T07:45:02.356Z,56.39
2023-04-18T07:46:06.173Z,54.98
2023-04-18T07:47:11.824Z,55.42
2023-04-18T07:48:14.665Z,56.52
2023-04-18T07:49:16.700Z,56.91
2023-04-18T07:50:18.764Z,54.76
2023-04-18T07:51:22.214Z,55.30
2023-04-18T07:52:24.264Z,55.25
2023-04-18T07:53:26.178Z,53.98
2023-04-18T07:54:28.120Z,52.22
2023-04-18T07:55:30.782Z,52.31
2023-04-18T07:56:32.986Z,53.40
2023-04-18T07:57:34.861Z,53.20
2023-04-18T07:58:36.840Z,52.49
2023-04-18T07:59:39.060Z,51.04
2023-04-18T08:00:43.785Z,51.32
2023-04-18T08:01:47.493Z,52.17
2023-04-18T08:02:55.713Z,60.94
2023-04-18T08:04:01.734Z,51.85
2023-04-18T08:05:04.247Z,51.45
2023-04-18T08:06:06.558Z,52.26
2023-04-18T08:07:08.776Z,52.07
2023-04-18T08:08:12.054Z,52.38
2023-04-18T08:09:14.146Z,53.30
2023-04-18T08:10:16.411Z,52.80
2023-04-18T08:11:18.292Z,52.19
2023-04-18T08:12:20.498Z,53.22
2023-04-18T08:13:22.491Z,53.17
2023-04-18T08:14:24.359Z,52.93
2023-04-18T08:15:27.653Z,52.20
2023-04-18T08:16:29.618Z,51.95
2023-04-18T08:17:33.075Z,52.16
2023-04-18T08:18:35.778Z,53.91
2023-04-18T08:19:37.625Z,54.02
2023-04-18T08:20:39.527Z,53.63
2023-04-18T08:21:41.385Z,53.71
2023-04-18T08:22:57.748Z,53.41
2023-04-18T08:24:05.670Z,52.63
2023-04-18T08:25:07.914Z,51.93
2023-04-18T08:26:09.787Z,49.80
2023-04-18T08:27:11.766Z,49.63
2023-04-18T08:28:14.211Z,49.40
2023-04-18T08:29:16.180Z,50.03
2023-04-18T08:30:18.087Z,50.00
2023-04-18T08:31:19.998Z,48.15
2023-04-18T08:32:21.932Z,47.82
2023-04-18T08:33:24.555Z,47.25
2023-04-18T08:34:26.451Z,46.72
2023-04-18T08:35:28.474Z,46.30
2023-04-18T08:36:31.546Z,46.19
2023-04-18T08:37:36.381Z,45.95
2023-04-18T08:38:38.596Z,46.03
2023-04-18T08:39:40.449Z,47.38
2023-04-18T08:40:43.565Z,46.79
2023-04-18T08:41:59.425Z,45.89
2023-04-18T08:43:05.002Z,46.81
2023-04-18T08:44:07.504Z,46.35
2023-04-18T08:45:09.665Z,46.54
2023-04-18T08:46:11.792Z,47.17
2023-04-18T08:47:14.711Z,46.52
2023-04-18T08:48:17.667Z,46.98
2023-04-18T08:49:22.551Z,47.76
2023-04-18T08:50:24.414Z,48.77
2023-04-18T08:51:30.779Z,48.87
2023-04-18T08:52:34.231Z,47.33
2023-04-18T08:53:36.172Z,48.00
2023-04-18T08:54:42.029Z,49.06
2023-04-18T08:55:44.533Z,48.82
2023-04-18T08:56:46.687Z,48.39
2023-04-18T08:57:50.384Z,49.26
2023-04-18T08:58:52.289Z,49.64
2023-04-18T08:59:55.304Z,49.27
2023-04-18T09:00:57.186Z,48.26
2023-04-18T09:02:01.505Z,49.52
2023-04-18T09:03:04.050Z,49.65
2023-04-18T09:04:06.274Z,49.69
2023-04-18T09:05:13.248Z,49.79
2023-04-18T09:06:18.933Z,48.57
2023-04-18T09:07:31.177Z,47.51
2023-04-18T09:08:33.001Z,45.98
2023-04-18T09:09:53.234Z,44.49
2023-04-18T09:10:56.187Z,43.01
2023-04-18T09:12:09.099Z,42.52
2023-04-18T09:13:11.171Z,41.79
2023-04-18T09:14:25.941Z,42.97
2023-04-18T09:15:29.278Z,43.65
2023-04-18T09:16:46.713Z,42.69
2023-04-18T09:17:51.095Z,42.98
2023-04-18T09:19:10.503Z,42.94
2023-04-18T09:20:15.629Z,43.11
2023-04-18T09:21:19.455Z,41.77
2023-04-18T09:22:21.972Z,41.83
2023-04-18T09:23:24.602Z,42.57
2023-04-18T09:24:28.493Z,41.90
2023-04-18T09:26:36.577Z,42.27
2023-04-18T09:27:38.788Z,43.41
2023-04-18T09:28:41.311Z,43.07
2023-04-18T09:29:46.983Z,43.12
2023-04-18T09:30:54.369Z,43.00
2023-04-18T09:32:01.228Z,42.86
2023-04-18T09:33:09.611Z,43.63
2023-04-18T09:34:25.021Z,42.80
2023-04-18T09:35:27.651Z,43.34
2023-04-18T09:36:31.337Z,42.38
2023-04-18T09:37:33.323Z,43.54
2023-04-18T09:38:41.917Z,43.35
2023-04-18T09:39:44.781Z,42.25
2023-04-18T09:40:46.640Z,42.06
2023-04-18T09:41:58.900Z,42.55
2023-04-18T09:43:01.309Z,42.95
2023-04-18T09:44:17.135Z,42.55
2023-04-18T09:45:19.469Z,43.24
2023-04-18T09:46:22.592Z,42.90
2023-04-18T09:47:24.560Z,42.75
2023-04-18T09:48:26.472Z,43.37
2023-04-18T09:49:29.063Z,43.42
2023-04-18T09:50:32.746Z,43.24
2023-04-18T09:51:34.989Z,44.08
2023-04-18T09:52:41.118Z,44.88
2023-04-18T09:53:44.996Z,44.20
2023-04-18T09:54:49.103Z,43.99
2023-04-18T09:55:56.245Z,43.69
2023-04-18T09:57:02.849Z,44.09
2023-04-18T09:58:05.916Z,44.16
2023-04-18T09:59:09.355Z,44.55
2023-04-18T10:00:24.592Z,44.35
2023-04-18T10:01:29.063Z,44.29
2023-04-18T10:02:39.334Z,44.30
2023-04-18T10:03:47.347Z,42.72
2023-04-18T10:04:55.934Z,43.14
2023-04-18T10:05:58.056Z,43.16
2023-04-18T10:07:01.856Z,43.51
2023-04-18T10:08:04.121Z,42.31
2023-04-18T10:09:08.447Z,42.56
2023-04-18T10:10:10.516Z,42.53
2023-04-18T10:11:12.529Z,41.43
2023-04-18T10:12:15.809Z,42.90
2023-04-18T10:13:18.794Z,42.14
2023-04-18T10:14:22.793Z,42.57
2023-04-18T10:15:29.333Z,40.89
2023-04-18T10:16:34.077Z,40.86
2023-04-18T10:19:30.021Z,41.71
2023-04-18T10:20:34.623Z,42.26
2023-04-18T10:21:36.658Z,41.98
2023-04-18T10:22:38.773Z,42.11
2023-04-18T10:23:40.971Z,40.54
2023-04-18T10:24:52.866Z,41.75
2023-04-18T10:25:54.596Z,41.34
2023-04-18T10:26:57.942Z,41.26
2023-04-18T10:28:01.886Z,41.75
2023-04-18T10:29:04.007Z,40.85
2023-04-18T10:30:08.913Z,40.17
2023-04-18T10:31:11.798Z,39.84
2023-04-18T10:32:13.735Z,41.15
2023-04-18T10:34:29.552Z,40.08
2023-04-18T10:35:35.824Z,39.41
2023-04-18T10:36:56.293Z,39.55
2023-04-18T10:37:59.569Z,39.23
2023-04-18T10:39:23.375Z,39.48
2023-04-18T10:40:35.265Z,39.66
2023-04-18T10:41:48.828Z,38.16
2023-04-18T10:42:51.514Z,37.75
2023-04-18T10:44:09.064Z,38.27
2023-04-18T10:45:22.261Z,38.12
2023-04-18T10:46:31.593Z,39.37
2023-04-18T10:47:34.623Z,37.97
2023-04-18T10:48:41.008Z,37.51
2023-04-18T10:49:53.874Z,37.30
2023-04-18T10:51:19.377Z,37.55
2023-04-18T10:52:21.299Z,37.57
2023-04-18T10:53:23.293Z,44.45
2023-04-18T10:54:39.005Z,37.70
2023-04-18T10:55:45.671Z,36.88
2023-04-18T10:57:02.240Z,36.86
2023-04-18T10:58:05.189Z,37.09
2023-04-18T10:59:10.765Z,37.52
2023-04-18T11:00:15.861Z,37.80
2023-04-18T11:01:27.935Z,37.38
2023-04-18T11:02:32.443Z,38.32
2023-04-18T11:03:35.102Z,38.63
2023-04-18T11:04:37.816Z,37.69
2023-04-18T11:05:39.848Z,38.66
2023-04-18T11:06:55.900Z,38.78
2023-04-18T11:07:58.104Z,38.75
2023-04-18T11:09:13.770Z,38.26
2023-04-18T11:10:24.581Z,37.40
2023-04-18T11:11:26.545Z,38.34
2023-04-18T11:12:36.586Z,39.04
2023-04-18T11:13:57.468Z,38.87
2023-04-18T11:15:04.183Z,38.57
2023-04-18T11:16:06.423Z,37.12
2023-04-18T11:17:24.626Z,37.48
2023-04-18T11:18:26.544Z,35.65
2023-04-18T11:19:28.950Z,36.33
2023-04-18T11:20:38.973Z,34.90
2023-04-18T11:21:41.030Z,34.42
2023-04-18T11:22:52.556Z,34.27
2023-04-18T11:23:56.129Z,34.46
2023-04-18T11:25:00.160Z,34.64
2023-04-18T11:26:03.312Z,33.94
2023-04-18T11:27:05.830Z,34.65
2023-04-18T11:28:07.664Z,34.30
2023-04-18T11:29:09.567Z,34.77
2023-04-18T11:30:13.428Z,33.56
2023-04-18T11:31:16.193Z,35.24
2023-04-18T11:32:18.264Z,35.08
2023-04-18T11:33:20.299Z,34.66
2023-04-18T11:34:22.375Z,34.90
2023-04-18T11:35:24.577Z,34.83
2023-04-18T11:36:26.641Z,34.21
2023-04-18T11:37:28.614Z,34.89
2023-04-18T11:38:30.941Z,34.67
2023-04-18T11:39:42.637Z,34.24
2023-04-18T11:40:49.103Z,34.18
2023-04-18T11:41:51.243Z,33.97
2023-04-18T11:42:54.474Z,34.49
2023-04-18T11:43:56.384Z,34.71
2023-04-18T11:44:58.230Z,34.52
2023-04-18T11:46:00.664Z,34.24
2023-04-18T11:47:02.560Z,34.33
2023-04-18T11:48:04.545Z,34.83
2023-04-18T11:49:06.907Z,35.76
2023-04-18T11:50:13.276Z,34.86
2023-04-18T11:51:46.333Z,35.37
2023-04-18T11:52:51.162Z,34.12
2023-04-18T11:53:52.994Z,34.53
2023-04-18T11:54:56.219Z,34.09
2023-04-18T11:55:58.142Z,33.67
2023-04-18T11:57:00.910Z,33.92
2023-04-18T11:58:03.356Z,35.40
2023-04-18T11:59:09.377Z,34.81
2023-04-18T12:00:12.609Z,34.23
2023-04-18T12:01:22.911Z,33.87
2023-04-18T12:02:38.679Z,35.05
2023-04-18T12:03:40.760Z,33.46
2023-04-18T12:05:01.671Z,34.48
2023-04-18T12:06:04.208Z,34.95
2023-04-18T12:07:06.676Z,33.67
2023-04-18T12:08:13.528Z,33.02
2023-04-18T12:09:19.596Z,33.36
2023-04-18T12:10:29.818Z,33.61
2023-04-18T12:11:31.760Z,33.93
2023-04-18T12:12:34.628Z,34.62
2023-04-18T12:13:36.484Z,33.84
2023-04-18T12:14:38.377Z,33.45
2023-04-18T12:15:43.494Z,32.53
2023-04-18T12:16:45.995Z,33.01
2023-04-18T12:17:57.253Z,33.15
2023-04-18T12:19:03.281Z,33.60
2023-04-18T12:20:08.036Z,33.69
2023-04-18T12:21:10.398Z,33.38
2023-04-18T12:22:12.270Z,34.08
2023-04-18T12:23:38.832Z,33.72
2023-04-18T12:24:41.730Z,33.49
2023-04-18T12:25:43.937Z,34.27
2023-04-18T12:26:46.320Z,34.25
2023-04-18T12:27:59.472Z,33.72
2023-04-18T12:29:01.778Z,33.46
2023-04-18T12:30:04.020Z,33.65
2023-04-18T12:31:07.058Z,33.09
2023-04-18T12:32:08.952Z,33.66
2023-04-18T12:33:11.402Z,32.98
2023-04-18T12:34:13.828Z,32.78
2023-04-18T12:35:17.941Z,32.81
2023-04-18T12:36:22.104Z,32.25
2023-04-18T12:37:25.610Z,33.33
2023-04-18T12:38:27.666Z,32.90
2023-04-18T12:39:29.748Z,33.05
2023-04-18T12:40:31.653Z,33.22
2023-04-18T12:41:33.550Z,32.35
2023-04-18T12:42:35.633Z,33.35
2023-04-18T12:43:37.493Z,32.53
2023-04-18T12:44:39.703Z,33.06
2023-04-18T12:45:41.646Z,33.48
2023-04-18T12:46:43.551Z,32.93
2023-04-18T12:47:47.898Z,33.54
2023-04-18T12:48:49.813Z,33.57
2023-04-18T12:49:51.951Z,32.66
2023-04-18T12:50:53.800Z,33.03
2023-04-18T12:51:55.700Z,32.66
2023-04-18T12:52:59.815Z,31.69
2023-04-18T12:54:01.866Z,32.56
2023-04-18T12:55:04.919Z,32.53
2023-04-18T12:56:06.962Z,32.69
2023-04-18T12:57:08.806Z,32.43
2023-04-18T12:58:10.741Z,33.03
2023-04-18T12:59:12.768Z,33.69
2023-04-18T13:00:15.267Z,32.37
2023-04-18T13:01:17.442Z,31.94
2023-04-18T13:02:19.434Z,32.35
2023-04-18T13:03:21.493Z,32.49
2023-04-18T13:04:23.626Z,31.85
2023-04-18T13:05:30.881Z,32.58
2023-04-18T13:06:34.612Z,32.32
2023-04-18T13:07:40.611Z,33.07
2023-04-18T13:08:42.718Z,32.18
2023-04-18T13:09:46.478Z,32.91
2023-04-18T13:10:48.700Z,32.58
2023-04-18T13:11:50.613Z,32.34
2023-04-18T13:12:52.903Z,33.14
2023-04-18T13:13:55.390Z,32.71
2023-04-18T13:14:57.682Z,32.74
2023-04-18T13:15:59.906Z,32.21
2023-04-18T13:17:01.827Z,31.05
2023-04-18T13:18:06.144Z,31.23
2023-04-18T13:19:08.194Z,31.12
2023-04-18T13:20:12.372Z,31.20
2023-04-18T13:21:14.549Z,31.02
2023-04-18T13:22:18.086Z,31.23
2023-04-18T13:23:20.031Z,30.45
2023-04-18T13:24:22.100Z,31.06
2023-04-18T13:25:23.972Z,30.99
2023-04-18T13:26:26.401Z,30.31
2023-04-18T13:27:28.723Z,29.71
2023-04-18T13:28:30.786Z,29.62
2023-04-18T13:29:32.691Z,29.79
2023-04-18T13:30:35.898Z,29.34
2023-04-18T13:31:38.160Z,29.64
2023-04-18T13:32:41.162Z,29.16
2023-04-18T13:33:44.527Z,29.74
2023-04-18T13:34:47.877Z,29.32
2023-04-18T13:35:49.720Z,28.74
2023-04-18T13:36:51.851Z,29.19
2023-04-18T13:37:54.125Z,30.01
2023-04-18T13:38:55.977Z,28.94
2023-04-18T13:39:57.929Z,28.44
2023-04-18T13:41:11.559Z,27.96
2023-04-18T13:42:16.286Z,26.85
2023-04-18T13:43:18.295Z,27.66